sensor_id;sensor_type;location;lat;lon;timestamp;P1;durP1;ratioP1;P2;durP2;ratioP2
78840;SDS011;68379;47.190;27.558;2024-02-04T00:01:22;3.10;;;1.40;;
78840;SDS011;68379;47.190;27.558;2024-02-04T00:03:53;3.50;;;1.30;;
78840;SDS011;68379;47.190;27.558;2024-02-04T00:06:25;2.50;;;1.30;;
78840;SDS011;68379;47.190;27.558;2024-02-04T00:08:56;3.10;;;1.40;;
78840;SDS011;68379;47.190;27.558;2024-02-04T00:11:28;2.00;;;1.20;;
78840;SDS011;68379;47.190;27.558;2024-02-04T00:13:59;4.10;;;1.60;;
78840;SDS011;68379;47.190;27.558;2024-02-04T00:16:31;2.60;;;1.50;;
78840;SDS011;68379;47.190;27.558;2024-02-04T00:19:02;2.60;;;1.40;;
78840;SDS011;68379;47.190;27.558;2024-02-04T00:21:34;3.50;;;1.40;;
78840;SDS011;68379;47.190;27.558;2024-02-04T00:24:06;3.00;;;1.30;;
78840;SDS011;68379;47.190;27.558;2024-02-04T00:26:37;2.80;;;1.40;;
78840;SDS011;68379;47.190;27.558;2024-02-04T00:29:08;3.20;;;1.60;;
78840;SDS011;68379;47.190;27.558;2024-02-04T00:31:40;2.60;;;1.30;;
78840;SDS011;68379;47.190;27.558;2024-02-04T00:34:12;2.40;;;1.30;;
78840;SDS011;68379;47.190;27.558;2024-02-04T00:36:43;3.80;;;1.50;;
78840;SDS011;68379;47.190;27.558;2024-02-04T00:39:14;2.10;;;1.30;;
78840;SDS011;68379;47.190;27.558;2024-02-04T00:41:46;2.60;;;1.30;;
78840;SDS011;68379;47.190;27.558;2024-02-04T00:44:17;3.50;;;2.00;;
78840;SDS011;68379;47.190;27.558;2024-02-04T00:46:49;2.90;;;1.30;;
78840;SDS011;68379;47.190;27.558;2024-02-04T00:49:20;2.70;;;1.40;;
78840;SDS011;68379;47.190;27.558;2024-02-04T00:51:52;2.20;;;1.60;;
78840;SDS011;68379;47.190;27.558;2024-02-04T00:54:24;2.50;;;1.40;;
78840;SDS011;68379;47.190;27.558;2024-02-04T00:56:55;2.10;;;1.20;;
78840;SDS011;68379;47.190;27.558;2024-02-04T00:59:28;2.80;;;1.50;;
78840;SDS011;68379;47.190;27.558;2024-02-04T01:01:59;2.80;;;1.60;;
78840;SDS011;68379;47.190;27.558;2024-02-04T01:04:31;3.10;;;1.60;;
78840;SDS011;68379;47.190;27.558;2024-02-04T01:07:03;4.60;;;1.40;;
78840;SDS011;68379;47.190;27.558;2024-02-04T01:09:35;2.50;;;1.40;;
78840;SDS011;68379;47.190;27.558;2024-02-04T01:12:07;2.30;;;1.30;;
78840;SDS011;68379;47.190;27.558;2024-02-04T01:14:38;2.20;;;1.50;;
78840;SDS011;68379;47.190;27.558;2024-02-04T01:17:10;3.00;;;1.50;;
78840;SDS011;68379;47.190;27.558;2024-02-04T01:19:41;2.80;;;1.50;;
78840;SDS011;68379;47.190;27.558;2024-02-04T01:22:12;2.30;;;1.40;;
78840;SDS011;68379;47.190;27.558;2024-02-04T01:24:44;2.60;;;1.50;;
78840;SDS011;68379;47.190;27.558;2024-02-04T01:27:16;2.90;;;1.60;;
78840;SDS011;68379;47.190;27.558;2024-02-04T01:29:47;4.10;;;1.70;;
78840;SDS011;68379;47.190;27.558;2024-02-04T01:32:19;2.90;;;1.90;;
78840;SDS011;68379;47.190;27.558;2024-02-04T01:34:50;2.80;;;1.60;;
78840;SDS011;68379;47.190;27.558;2024-02-04T01:37:22;2.50;;;1.80;;
78840;SDS011;68379;47.190;27.558;2024-02-04T01:39:53;2.40;;;1.70;;
78840;SDS011;68379;47.190;27.558;2024-02-04T01:42:24;2.90;;;1.50;;
78840;SDS011;68379;47.190;27.558;2024-02-04T01:44:56;2.20;;;1.40;;
78840;SDS011;68379;47.190;27.558;2024-02-04T01:47:27;3.20;;;1.40;;
78840;SDS011;68379;47.190;27.558;2024-02-04T01:49:59;2.70;;;1.40;;
78840;SDS011;68379;47.190;27.558;2024-02-04T01:52:32;3.10;;;1.50;;
78840;SDS011;68379;47.190;27.558;2024-02-04T01:55:06;3.90;;;1.70;;
78840;SDS011;68379;47.190;27.558;2024-02-04T01:57:38;3.10;;;1.70;;
78840;SDS011;68379;47.190;27.558;2024-02-04T02:00:11;3.40;;;1.70;;
78840;SDS011;68379;47.190;27.558;2024-02-04T02:02:46;3.40;;;1.80;;
78840;SDS011;68379;47.190;27.558;2024-02-04T02:05:19;2.80;;;1.70;;
78840;SDS011;68379;47.190;27.558;2024-02-04T02:07:51;3.00;;;1.60;;
78840;SDS011;68379;47.190;27.558;2024-02-04T02:10:23;3.10;;;1.70;;
78840;SDS011;68379;47.190;27.558;2024-02-04T02:12:56;2.70;;;1.40;;
78840;SDS011;68379;47.190;27.558;2024-02-04T02:15:32;2.20;;;1.40;;
78840;SDS011;68379;47.190;27.558;2024-02-04T02:18:09;2.60;;;1.50;;
78840;SDS011;68379;47.190;27.558;2024-02-04T02:20:48;3.40;;;1.90;;
78840;SDS011;68379;47.190;27.558;2024-02-04T02:23:34;3.20;;;1.20;;
78840;SDS011;68379;47.190;27.558;2024-02-04T02:26:10;2.70;;;1.50;;
78840;SDS011;68379;47.190;27.558;2024-02-04T02:28:42;3.20;;;1.60;;
78840;SDS011;68379;47.190;27.558;2024-02-04T02:31:13;2.20;;;1.50;;
78840;SDS011;68379;47.190;27.558;2024-02-04T02:33:45;2.80;;;1.60;;
78840;SDS011;68379;47.190;27.558;2024-02-04T02:36:17;2.40;;;1.30;;
78840;SDS011;68379;47.190;27.558;2024-02-04T02:38:52;2.40;;;1.30;;
78840;SDS011;68379;47.190;27.558;2024-02-04T02:41:29;3.30;;;1.50;;
78840;SDS011;68379;47.190;27.558;2024-02-04T02:44:04;2.20;;;1.40;;
78840;SDS011;68379;47.190;27.558;2024-02-04T02:46:37;3.10;;;1.60;;
78840;SDS011;68379;47.190;27.558;2024-02-04T02:49:09;2.70;;;1.60;;
78840;SDS011;68379;47.190;27.558;2024-02-04T02:51:41;3.10;;;1.40;;
78840;SDS011;68379;47.190;27.558;2024-02-04T02:54:13;2.90;;;1.30;;
78840;SDS011;68379;47.190;27.558;2024-02-04T02:56:44;2.30;;;1.20;;
78840;SDS011;68379;47.190;27.558;2024-02-04T02:59:16;1.70;;;1.00;;
78840;SDS011;68379;47.190;27.558;2024-02-04T03:01:47;2.50;;;1.20;;
78840;SDS011;68379;47.190;27.558;2024-02-04T03:04:19;2.80;;;1.50;;
78840;SDS011;68379;47.190;27.558;2024-02-04T03:06:51;2.40;;;1.40;;
78840;SDS011;68379;47.190;27.558;2024-02-04T03:09:22;3.20;;;1.40;;
78840;SDS011;68379;47.190;27.558;2024-02-04T03:11:54;2.40;;;1.70;;
78840;SDS011;68379;47.190;27.558;2024-02-04T03:14:25;3.10;;;1.40;;
78840;SDS011;68379;47.190;27.558;2024-02-04T03:16:57;1.80;;;1.20;;
78840;SDS011;68379;47.190;27.558;2024-02-04T03:19:28;2.60;;;1.20;;
78840;SDS011;68379;47.190;27.558;2024-02-04T03:22:00;2.90;;;1.60;;
78840;SDS011;68379;47.190;27.558;2024-02-04T03:24:31;3.70;;;1.60;;
78840;SDS011;68379;47.190;27.558;2024-02-04T03:27:03;3.20;;;1.40;;
78840;SDS011;68379;47.190;27.558;2024-02-04T03:29:35;2.40;;;1.30;;
78840;SDS011;68379;47.190;27.558;2024-02-04T03:32:06;2.90;;;1.40;;
78840;SDS011;68379;47.190;27.558;2024-02-04T03:34:38;2.10;;;1.40;;
78840;SDS011;68379;47.190;27.558;2024-02-04T03:37:10;2.00;;;1.10;;
78840;SDS011;68379;47.190;27.558;2024-02-04T03:39:42;2.60;;;1.50;;
78840;SDS011;68379;47.190;27.558;2024-02-04T03:42:13;3.70;;;1.50;;
78840;SDS011;68379;47.190;27.558;2024-02-04T03:44:46;2.10;;;1.30;;
78840;SDS011;68379;47.190;27.558;2024-02-04T03:47:18;3.50;;;1.70;;
78840;SDS011;68379;47.190;27.558;2024-02-04T03:49:49;2.30;;;1.40;;
78840;SDS011;68379;47.190;27.558;2024-02-04T03:52:21;2.20;;;1.50;;
78840;SDS011;68379;47.190;27.558;2024-02-04T03:54:52;2.80;;;1.40;;
78840;SDS011;68379;47.190;27.558;2024-02-04T03:57:23;2.30;;;1.30;;
78840;SDS011;68379;47.190;27.558;2024-02-04T03:59:55;2.80;;;1.30;;
78840;SDS011;68379;47.190;27.558;2024-02-04T04:02:27;2.90;;;1.40;;
78840;SDS011;68379;47.190;27.558;2024-02-04T04:04:58;2.20;;;1.40;;
78840;SDS011;68379;47.190;27.558;2024-02-04T04:07:30;2.20;;;1.20;;
78840;SDS011;68379;47.190;27.558;2024-02-04T04:10:02;2.40;;;1.50;;
78840;SDS011;68379;47.190;27.558;2024-02-04T04:12:34;2.50;;;1.50;;
78840;SDS011;68379;47.190;27.558;2024-02-04T04:15:06;2.30;;;1.40;;
78840;SDS011;68379;47.190;27.558;2024-02-04T04:17:38;2.60;;;1.50;;
78840;SDS011;68379;47.190;27.558;2024-02-04T04:20:10;3.10;;;1.50;;
78840;SDS011;68379;47.190;27.558;2024-02-04T04:22:42;2.80;;;1.50;;
78840;SDS011;68379;47.190;27.558;2024-02-04T04:25:14;3.10;;;1.80;;
78840;SDS011;68379;47.190;27.558;2024-02-04T04:27:46;2.70;;;1.30;;
78840;SDS011;68379;47.190;27.558;2024-02-04T04:30:17;2.80;;;1.20;;
78840;SDS011;68379;47.190;27.558;2024-02-04T04:32:48;2.60;;;1.40;;
78840;SDS011;68379;47.190;27.558;2024-02-04T04:35:20;2.40;;;1.30;;
78840;SDS011;68379;47.190;27.558;2024-02-04T04:37:51;3.30;;;1.10;;
78840;SDS011;68379;47.190;27.558;2024-02-04T04:40:23;3.30;;;1.40;;
78840;SDS011;68379;47.190;27.558;2024-02-04T04:42:54;2.50;;;1.20;;
78840;SDS011;68379;47.190;27.558;2024-02-04T04:45:25;1.80;;;0.90;;
78840;SDS011;68379;47.190;27.558;2024-02-04T04:47:57;1.40;;;0.80;;
78840;SDS011;68379;47.190;27.558;2024-02-04T04:50:28;1.80;;;0.80;;
78840;SDS011;68379;47.190;27.558;2024-02-04T04:52:59;3.10;;;1.30;;
78840;SDS011;68379;47.190;27.558;2024-02-04T04:55:31;2.50;;;1.50;;
78840;SDS011;68379;47.190;27.558;2024-02-04T04:58:03;2.30;;;1.20;;
78840;SDS011;68379;47.190;27.558;2024-02-04T05:00:35;2.60;;;1.40;;
78840;SDS011;68379;47.190;27.558;2024-02-04T05:03:06;2.00;;;1.20;;
78840;SDS011;68379;47.190;27.558;2024-02-04T05:05:38;3.00;;;1.30;;
78840;SDS011;68379;47.190;27.558;2024-02-04T05:08:09;2.80;;;1.20;;
78840;SDS011;68379;47.190;27.558;2024-02-04T05:10:41;2.90;;;1.50;;
78840;SDS011;68379;47.190;27.558;2024-02-04T05:13:12;1.90;;;1.40;;
78840;SDS011;68379;47.190;27.558;2024-02-04T05:15:44;3.00;;;1.80;;
78840;SDS011;68379;47.190;27.558;2024-02-04T05:18:15;3.00;;;1.80;;
78840;SDS011;68379;47.190;27.558;2024-02-04T05:20:47;3.90;;;1.70;;
78840;SDS011;68379;47.190;27.558;2024-02-04T05:23:18;2.30;;;1.80;;
78840;SDS011;68379;47.190;27.558;2024-02-04T05:25:50;3.10;;;1.60;;
78840;SDS011;68379;47.190;27.558;2024-02-04T05:28:21;2.90;;;1.90;;
78840;SDS011;68379;47.190;27.558;2024-02-04T05:30:53;2.90;;;1.60;;
78840;SDS011;68379;47.190;27.558;2024-02-04T05:33:24;3.50;;;2.00;;
78840;SDS011;68379;47.190;27.558;2024-02-04T05:35:55;3.30;;;1.70;;
78840;SDS011;68379;47.190;27.558;2024-02-04T05:38:27;2.40;;;1.90;;
78840;SDS011;68379;47.190;27.558;2024-02-04T05:40:59;3.10;;;1.80;;
78840;SDS011;68379;47.190;27.558;2024-02-04T05:43:30;4.00;;;1.90;;
78840;SDS011;68379;47.190;27.558;2024-02-04T05:46:02;3.40;;;1.80;;
78840;SDS011;68379;47.190;27.558;2024-02-04T05:48:34;3.10;;;2.00;;
78840;SDS011;68379;47.190;27.558;2024-02-04T05:51:05;2.60;;;1.80;;
78840;SDS011;68379;47.190;27.558;2024-02-04T05:53:37;4.20;;;2.00;;
78840;SDS011;68379;47.190;27.558;2024-02-04T05:56:09;3.30;;;2.00;;
78840;SDS011;68379;47.190;27.558;2024-02-04T05:58:41;3.80;;;1.80;;
78840;SDS011;68379;47.190;27.558;2024-02-04T06:01:14;3.80;;;1.90;;
78840;SDS011;68379;47.190;27.558;2024-02-04T06:03:46;3.60;;;1.90;;
78840;SDS011;68379;47.190;27.558;2024-02-04T06:06:17;3.00;;;1.90;;
78840;SDS011;68379;47.190;27.558;2024-02-04T06:08:49;4.00;;;1.80;;
78840;SDS011;68379;47.190;27.558;2024-02-04T06:11:21;3.20;;;2.10;;
78840;SDS011;68379;47.190;27.558;2024-02-04T06:13:52;3.90;;;2.00;;
78840;SDS011;68379;47.190;27.558;2024-02-04T06:16:24;3.00;;;1.80;;
78840;SDS011;68379;47.190;27.558;2024-02-04T06:18:55;3.40;;;1.70;;
78840;SDS011;68379;47.190;27.558;2024-02-04T06:21:28;3.00;;;1.40;;
78840;SDS011;68379;47.190;27.558;2024-02-04T06:23:59;3.30;;;1.90;;
78840;SDS011;68379;47.190;27.558;2024-02-04T06:26:30;2.90;;;1.60;;
78840;SDS011;68379;47.190;27.558;2024-02-04T06:29:02;3.80;;;2.10;;
78840;SDS011;68379;47.190;27.558;2024-02-04T06:31:33;3.30;;;1.90;;
78840;SDS011;68379;47.190;27.558;2024-02-04T06:34:05;3.40;;;1.80;;
78840;SDS011;68379;47.190;27.558;2024-02-04T06:36:36;3.70;;;2.20;;
78840;SDS011;68379;47.190;27.558;2024-02-04T06:39:11;4.00;;;2.10;;
78840;SDS011;68379;47.190;27.558;2024-02-04T06:41:42;4.00;;;2.00;;
78840;SDS011;68379;47.190;27.558;2024-02-04T06:44:14;4.90;;;2.50;;
78840;SDS011;68379;47.190;27.558;2024-02-04T06:46:46;4.30;;;2.30;;
78840;SDS011;68379;47.190;27.558;2024-02-04T06:49:17;4.60;;;2.00;;
78840;SDS011;68379;47.190;27.558;2024-02-04T06:51:49;4.40;;;2.10;;
78840;SDS011;68379;47.190;27.558;2024-02-04T06:54:24;4.90;;;2.60;;
78840;SDS011;68379;47.190;27.558;2024-02-04T06:56:55;4.10;;;2.30;;
78840;SDS011;68379;47.190;27.558;2024-02-04T06:59:27;5.20;;;2.80;;
78840;SDS011;68379;47.190;27.558;2024-02-04T07:01:58;5.20;;;3.20;;
78840;SDS011;68379;47.190;27.558;2024-02-04T07:04:30;4.60;;;2.80;;
78840;SDS011;68379;47.190;27.558;2024-02-04T07:07:01;5.00;;;3.40;;
78840;SDS011;68379;47.190;27.558;2024-02-04T07:09:33;6.70;;;3.20;;
78840;SDS011;68379;47.190;27.558;2024-02-04T07:12:06;3.90;;;2.50;;
78840;SDS011;68379;47.190;27.558;2024-02-04T07:14:38;4.90;;;2.30;;
78840;SDS011;68379;47.190;27.558;2024-02-04T07:17:09;4.30;;;2.60;;
78840;SDS011;68379;47.190;27.558;2024-02-04T07:19:40;4.50;;;2.70;;
78840;SDS011;68379;47.190;27.558;2024-02-04T07:22:12;5.60;;;3.00;;
78840;SDS011;68379;47.190;27.558;2024-02-04T07:24:43;5.60;;;3.50;;
78840;SDS011;68379;47.190;27.558;2024-02-04T07:27:15;4.90;;;2.80;;
78840;SDS011;68379;47.190;27.558;2024-02-04T07:29:46;4.90;;;3.20;;
78840;SDS011;68379;47.190;27.558;2024-02-04T07:32:18;4.60;;;2.60;;
78840;SDS011;68379;47.190;27.558;2024-02-04T07:34:51;5.70;;;3.00;;
78840;SDS011;68379;47.190;27.558;2024-02-04T07:37:23;4.90;;;3.00;;
78840;SDS011;68379;47.190;27.558;2024-02-04T07:39:54;7.00;;;3.10;;
78840;SDS011;68379;47.190;27.558;2024-02-04T07:42:26;5.70;;;3.20;;
78840;SDS011;68379;47.190;27.558;2024-02-04T07:44:57;6.10;;;3.50;;
78840;SDS011;68379;47.190;27.558;2024-02-04T07:47:29;7.40;;;3.50;;
78840;SDS011;68379;47.190;27.558;2024-02-04T07:50:01;5.60;;;3.70;;
78840;SDS011;68379;47.190;27.558;2024-02-04T07:52:33;6.70;;;4.00;;
78840;SDS011;68379;47.190;27.558;2024-02-04T07:55:04;6.50;;;2.90;;
78840;SDS011;68379;47.190;27.558;2024-02-04T07:57:36;5.80;;;3.50;;
78840;SDS011;68379;47.190;27.558;2024-02-04T08:00:08;5.80;;;3.40;;
78840;SDS011;68379;47.190;27.558;2024-02-04T08:02:43;5.90;;;3.40;;
78840;SDS011;68379;47.190;27.558;2024-02-04T08:05:15;6.30;;;3.40;;
78840;SDS011;68379;47.190;27.558;2024-02-04T08:07:46;6.00;;;3.20;;
78840;SDS011;68379;47.190;27.558;2024-02-04T08:10:18;6.90;;;3.80;;
78840;SDS011;68379;47.190;27.558;2024-02-04T08:12:49;6.50;;;3.50;;
78840;SDS011;68379;47.190;27.558;2024-02-04T08:15:22;6.20;;;3.90;;
78840;SDS011;68379;47.190;27.558;2024-02-04T08:17:54;5.50;;;3.20;;
78840;SDS011;68379;47.190;27.558;2024-02-04T08:20:25;6.90;;;3.80;;
78840;SDS011;68379;47.190;27.558;2024-02-04T08:22:56;6.70;;;3.30;;
78840;SDS011;68379;47.190;27.558;2024-02-04T08:25:28;7.20;;;3.80;;
78840;SDS011;68379;47.190;27.558;2024-02-04T08:27:59;6.10;;;3.50;;
78840;SDS011;68379;47.190;27.558;2024-02-04T08:30:31;6.50;;;3.80;;
78840;SDS011;68379;47.190;27.558;2024-02-04T08:33:03;5.50;;;3.60;;
78840;SDS011;68379;47.190;27.558;2024-02-04T08:35:35;5.50;;;3.30;;
78840;SDS011;68379;47.190;27.558;2024-02-04T08:38:07;4.60;;;2.80;;
78840;SDS011;68379;47.190;27.558;2024-02-04T08:40:38;5.40;;;2.70;;
78840;SDS011;68379;47.190;27.558;2024-02-04T08:43:09;4.60;;;3.00;;
78840;SDS011;68379;47.190;27.558;2024-02-04T08:45:41;5.50;;;3.50;;
78840;SDS011;68379;47.190;27.558;2024-02-04T08:48:12;4.30;;;2.70;;
78840;SDS011;68379;47.190;27.558;2024-02-04T08:50:44;5.10;;;2.70;;
78840;SDS011;68379;47.190;27.558;2024-02-04T08:53:19;5.60;;;2.60;;
78840;SDS011;68379;47.190;27.558;2024-02-04T08:55:51;3.90;;;2.30;;
78840;SDS011;68379;47.190;27.558;2024-02-04T08:58:23;3.80;;;2.20;;
78840;SDS011;68379;47.190;27.558;2024-02-04T09:00:54;4.80;;;2.30;;
78840;SDS011;68379;47.190;27.558;2024-02-04T09:03:26;5.30;;;2.70;;
78840;SDS011;68379;47.190;27.558;2024-02-04T09:05:59;4.80;;;2.60;;
78840;SDS011;68379;47.190;27.558;2024-02-04T09:08:33;5.10;;;3.10;;
78840;SDS011;68379;47.190;27.558;2024-02-04T09:11:04;3.70;;;2.80;;
78840;SDS011;68379;47.190;27.558;2024-02-04T09:13:36;4.90;;;2.60;;
78840;SDS011;68379;47.190;27.558;2024-02-04T09:16:08;4.50;;;2.60;;
78840;SDS011;68379;47.190;27.558;2024-02-04T09:18:39;3.60;;;2.40;;
78840;SDS011;68379;47.190;27.558;2024-02-04T09:21:11;4.40;;;2.60;;
78840;SDS011;68379;47.190;27.558;2024-02-04T09:23:43;4.70;;;2.90;;
78840;SDS011;68379;47.190;27.558;2024-02-04T09:26:15;4.10;;;2.50;;
78840;SDS011;68379;47.190;27.558;2024-02-04T09:28:47;3.40;;;1.90;;
78840;SDS011;68379;47.190;27.558;2024-02-04T09:31:18;3.20;;;2.30;;
78840;SDS011;68379;47.190;27.558;2024-02-04T09:33:50;4.00;;;2.30;;
78840;SDS011;68379;47.190;27.558;2024-02-04T09:36:21;4.10;;;2.30;;
78840;SDS011;68379;47.190;27.558;2024-02-04T09:38:52;3.50;;;2.50;;
78840;SDS011;68379;47.190;27.558;2024-02-04T09:41:24;3.00;;;2.00;;
78840;SDS011;68379;47.190;27.558;2024-02-04T09:43:57;4.00;;;2.30;;
78840;SDS011;68379;47.190;27.558;2024-02-04T09:46:31;3.50;;;2.30;;
78840;SDS011;68379;47.190;27.558;2024-02-04T09:49:03;3.40;;;2.10;;
78840;SDS011;68379;47.190;27.558;2024-02-04T09:51:35;5.70;;;2.50;;
78840;SDS011;68379;47.190;27.558;2024-02-04T09:54:07;5.50;;;2.70;;
78840;SDS011;68379;47.190;27.558;2024-02-04T09:56:40;5.70;;;3.00;;
78840;SDS011;68379;47.190;27.558;2024-02-04T09:59:13;4.60;;;3.20;;
78840;SDS011;68379;47.190;27.558;2024-02-04T10:01:44;5.30;;;3.40;;
78840;SDS011;68379;47.190;27.558;2024-02-04T10:04:16;4.40;;;3.10;;
78840;SDS011;68379;47.190;27.558;2024-02-04T10:06:48;4.20;;;2.70;;
78840;SDS011;68379;47.190;27.558;2024-02-04T10:09:19;5.20;;;3.10;;
78840;SDS011;68379;47.190;27.558;2024-02-04T10:11:51;6.80;;;3.40;;
78840;SDS011;68379;47.190;27.558;2024-02-04T10:14:23;6.90;;;3.00;;
78840;SDS011;68379;47.190;27.558;2024-02-04T10:16:54;5.10;;;3.20;;
78840;SDS011;68379;47.190;27.558;2024-02-04T10:19:26;5.60;;;3.30;;
78840;SDS011;68379;47.190;27.558;2024-02-04T10:21:59;4.70;;;2.80;;
78840;SDS011;68379;47.190;27.558;2024-02-04T10:24:31;5.50;;;3.10;;
78840;SDS011;68379;47.190;27.558;2024-02-04T10:27:02;4.90;;;3.10;;
78840;SDS011;68379;47.190;27.558;2024-02-04T10:29:35;6.80;;;3.20;;
78840;SDS011;68379;47.190;27.558;2024-02-04T10:32:06;4.20;;;2.70;;
78840;SDS011;68379;47.190;27.558;2024-02-04T10:34:38;5.00;;;3.20;;
78840;SDS011;68379;47.190;27.558;2024-02-04T10:37:09;4.50;;;2.90;;
78840;SDS011;68379;47.190;27.558;2024-02-04T10:39:41;6.30;;;2.80;;
78840;SDS011;68379;47.190;27.558;2024-02-04T10:42:12;3.90;;;2.40;;
78840;SDS011;68379;47.190;27.558;2024-02-04T10:44:44;4.40;;;2.80;;
78840;SDS011;68379;47.190;27.558;2024-02-04T10:47:21;6.70;;;3.10;;
78840;SDS011;68379;47.190;27.558;2024-02-04T10:49:54;6.00;;;3.80;;
78840;SDS011;68379;47.190;27.558;2024-02-04T10:52:28;4.70;;;3.30;;
78840;SDS011;68379;47.190;27.558;2024-02-04T10:55:07;6.90;;;3.60;;
78840;SDS011;68379;47.190;27.558;2024-02-04T10:57:41;5.50;;;3.30;;
78840;SDS011;68379;47.190;27.558;2024-02-04T11:00:15;6.70;;;3.60;;
78840;SDS011;68379;47.190;27.558;2024-02-04T11:02:49;6.30;;;3.60;;
78840;SDS011;68379;47.190;27.558;2024-02-04T11:05:23;4.60;;;3.20;;
78840;SDS011;68379;47.190;27.558;2024-02-04T11:07:55;5.90;;;3.30;;
78840;SDS011;68379;47.190;27.558;2024-02-04T11:10:28;5.70;;;3.10;;
78840;SDS011;68379;47.190;27.558;2024-02-04T11:13:00;5.90;;;3.20;;
78840;SDS011;68379;47.190;27.558;2024-02-04T11:15:35;5.40;;;2.70;;
78840;SDS011;68379;47.190;27.558;2024-02-04T11:24:26;4.40;;;2.10;;
78840;SDS011;68379;47.190;27.558;2024-02-04T11:29:37;2.90;;;0.80;;
78840;SDS011;68379;47.190;27.558;2024-02-04T11:32:09;1.90;;;1.00;;
78840;SDS011;68379;47.190;27.558;2024-02-04T11:34:43;1.40;;;0.50;;
78840;SDS011;68379;47.190;27.558;2024-02-04T11:37:18;1.80;;;0.40;;
78840;SDS011;68379;47.190;27.558;2024-02-04T11:39:52;1.80;;;0.70;;
78840;SDS011;68379;47.190;27.558;2024-02-04T11:42:25;0.60;;;0.20;;
78840;SDS011;68379;47.190;27.558;2024-02-04T11:45:11;0.80;;;0.30;;
78840;SDS011;68379;47.190;27.558;2024-02-04T11:47:43;1.40;;;0.50;;
78840;SDS011;68379;47.190;27.558;2024-02-04T11:50:25;0.90;;;0.30;;
78840;SDS011;68379;47.190;27.558;2024-02-04T11:53:03;0.70;;;0.40;;
78840;SDS011;68379;47.190;27.558;2024-02-04T11:55:38;1.00;;;0.40;;
78840;SDS011;68379;47.190;27.558;2024-02-04T11:58:10;1.80;;;0.50;;
78840;SDS011;68379;47.190;27.558;2024-02-04T12:00:43;0.80;;;0.50;;
78840;SDS011;68379;47.190;27.558;2024-02-04T12:03:17;3.40;;;0.70;;
78840;SDS011;68379;47.190;27.558;2024-02-04T12:06:00;1.60;;;0.30;;
78840;SDS011;68379;47.190;27.558;2024-02-04T12:08:33;1.30;;;0.40;;
78840;SDS011;68379;47.190;27.558;2024-02-04T12:11:04;1.10;;;0.50;;
78840;SDS011;68379;47.190;27.558;2024-02-04T12:13:36;1.10;;;0.40;;
78840;SDS011;68379;47.190;27.558;2024-02-04T12:16:08;1.10;;;0.60;;
78840;SDS011;68379;47.190;27.558;2024-02-04T12:18:48;1.00;;;0.30;;
78840;SDS011;68379;47.190;27.558;2024-02-04T12:21:21;1.70;;;0.40;;
78840;SDS011;68379;47.190;27.558;2024-02-04T12:23:52;1.10;;;0.60;;
78840;SDS011;68379;47.190;27.558;2024-02-04T12:26:24;0.90;;;0.50;;
78840;SDS011;68379;47.190;27.558;2024-02-04T12:28:56;1.70;;;0.60;;
78840;SDS011;68379;47.190;27.558;2024-02-04T12:31:27;1.10;;;0.70;;
78840;SDS011;68379;47.190;27.558;2024-02-04T12:34:00;1.20;;;0.60;;
78840;SDS011;68379;47.190;27.558;2024-02-04T12:36:32;1.60;;;0.70;;
78840;SDS011;68379;47.190;27.558;2024-02-04T12:39:04;2.70;;;1.50;;
78840;SDS011;68379;47.190;27.558;2024-02-04T12:41:40;1.60;;;0.80;;
78840;SDS011;68379;47.190;27.558;2024-02-04T12:44:12;1.80;;;0.80;;
78840;SDS011;68379;47.190;27.558;2024-02-04T12:46:51;1.70;;;0.70;;
78840;SDS011;68379;47.190;27.558;2024-02-04T12:49:24;2.80;;;0.80;;
78840;SDS011;68379;47.190;27.558;2024-02-04T12:52:05;1.90;;;0.80;;
78840;SDS011;68379;47.190;27.558;2024-02-04T12:54:43;1.20;;;0.50;;
78840;SDS011;68379;47.190;27.558;2024-02-04T12:57:22;1.30;;;0.70;;
78840;SDS011;68379;47.190;27.558;2024-02-04T13:00:03;1.00;;;0.50;;
78840;SDS011;68379;47.190;27.558;2024-02-04T13:02:36;1.20;;;0.70;;
78840;SDS011;68379;47.190;27.558;2024-02-04T13:05:08;1.00;;;0.60;;
78840;SDS011;68379;47.190;27.558;2024-02-04T13:07:55;1.40;;;0.60;;
78840;SDS011;68379;47.190;27.558;2024-02-04T13:10:31;1.50;;;0.70;;
78840;SDS011;68379;47.190;27.558;2024-02-04T13:13:04;2.50;;;1.70;;
78840;SDS011;68379;47.190;27.558;2024-02-04T13:15:38;1.60;;;0.70;;
78840;SDS011;68379;47.190;27.558;2024-02-04T13:18:12;0.90;;;0.40;;
78840;SDS011;68379;47.190;27.558;2024-02-04T13:20:44;1.20;;;0.70;;
78840;SDS011;68379;47.190;27.558;2024-02-04T13:23:15;1.70;;;1.10;;
78840;SDS011;68379;47.190;27.558;2024-02-04T13:25:47;1.50;;;0.70;;
78840;SDS011;68379;47.190;27.558;2024-02-04T13:28:18;1.20;;;0.70;;
78840;SDS011;68379;47.190;27.558;2024-02-04T13:30:51;1.60;;;0.80;;
78840;SDS011;68379;47.190;27.558;2024-02-04T13:33:22;1.50;;;0.50;;
78840;SDS011;68379;47.190;27.558;2024-02-04T13:35:55;1.70;;;0.80;;
78840;SDS011;68379;47.190;27.558;2024-02-04T13:38:26;1.10;;;0.60;;
78840;SDS011;68379;47.190;27.558;2024-02-04T13:41:05;1.80;;;0.90;;
78840;SDS011;68379;47.190;27.558;2024-02-04T13:43:37;2.50;;;1.50;;
78840;SDS011;68379;47.190;27.558;2024-02-04T13:46:08;3.20;;;1.40;;
78840;SDS011;68379;47.190;27.558;2024-02-04T13:48:39;2.50;;;1.10;;
78840;SDS011;68379;47.190;27.558;2024-02-04T13:51:11;3.10;;;1.90;;
78840;SDS011;68379;47.190;27.558;2024-02-04T13:53:42;3.30;;;1.40;;
78840;SDS011;68379;47.190;27.558;2024-02-04T13:56:14;4.20;;;1.50;;
78840;SDS011;68379;47.190;27.558;2024-02-04T13:58:46;3.10;;;1.40;;
78840;SDS011;68379;47.190;27.558;2024-02-04T14:01:18;2.50;;;1.20;;
78840;SDS011;68379;47.190;27.558;2024-02-04T14:03:50;3.40;;;1.10;;
78840;SDS011;68379;47.190;27.558;2024-02-04T14:06:24;2.10;;;1.00;;
78840;SDS011;68379;47.190;27.558;2024-02-04T14:08:57;2.40;;;1.20;;
78840;SDS011;68379;47.190;27.558;2024-02-04T14:11:29;3.10;;;1.10;;
78840;SDS011;68379;47.190;27.558;2024-02-04T14:14:00;3.10;;;1.50;;
78840;SDS011;68379;47.190;27.558;2024-02-04T14:16:36;2.60;;;1.20;;
78840;SDS011;68379;47.190;27.558;2024-02-04T14:19:08;2.90;;;1.60;;
78840;SDS011;68379;47.190;27.558;2024-02-04T14:21:42;3.00;;;1.40;;
78840;SDS011;68379;47.190;27.558;2024-02-04T14:24:17;2.40;;;1.20;;
78840;SDS011;68379;47.190;27.558;2024-02-04T14:26:48;3.30;;;2.10;;
78840;SDS011;68379;47.190;27.558;2024-02-04T14:29:28;3.10;;;1.70;;
78840;SDS011;68379;47.190;27.558;2024-02-04T14:31:59;3.00;;;1.80;;
78840;SDS011;68379;47.190;27.558;2024-02-04T14:34:32;3.90;;;1.90;;
78840;SDS011;68379;47.190;27.558;2024-02-04T14:37:06;2.40;;;1.50;;
78840;SDS011;68379;47.190;27.558;2024-02-04T14:39:39;2.80;;;1.30;;
78840;SDS011;68379;47.190;27.558;2024-02-04T14:42:18;4.70;;;1.60;;
78840;SDS011;68379;47.190;27.558;2024-02-04T14:44:50;3.10;;;1.50;;
78840;SDS011;68379;47.190;27.558;2024-02-04T14:47:21;3.20;;;1.60;;
78840;SDS011;68379;47.190;27.558;2024-02-04T14:49:53;2.80;;;1.30;;
78840;SDS011;68379;47.190;27.558;2024-02-04T14:52:25;3.90;;;1.60;;
78840;SDS011;68379;47.190;27.558;2024-02-04T14:54:56;2.70;;;1.50;;
78840;SDS011;68379;47.190;27.558;2024-02-04T14:57:28;4.30;;;1.90;;
78840;SDS011;68379;47.190;27.558;2024-02-04T14:59:59;4.50;;;1.90;;
78840;SDS011;68379;47.190;27.558;2024-02-04T15:02:31;6.10;;;1.90;;
78840;SDS011;68379;47.190;27.558;2024-02-04T15:07:35;4.30;;;1.90;;
78840;SDS011;68379;47.190;27.558;2024-02-04T15:10:07;8.20;;;3.30;;
78840;SDS011;68379;47.190;27.558;2024-02-04T15:12:41;8.30;;;3.30;;
78840;SDS011;68379;47.190;27.558;2024-02-04T15:15:16;13.30;;;4.20;;